Time;durP1;ratioP1;P1;durP2;ratioP2;P2;SDS_P1;SDS_P2;PMS_P1;PMS_P2;Temp;Humidity;BMP_temperature;BMP_pressure;BME280_temperature;BME280_humidity;BME280_pressure;Samples;Min_cycle;Max_cycle;Signal;HPM_P1;HPM_P2
2021/12/19 00:01:02;;;;;;;6.82;3.83;;;7.50;96.10;;;;;;2061546;28;20501;-90
2021/12/19 00:09:30;;;;;;;6.15;3.20;;;7.30;96.00;;;;;;2091582;28;20036;-90
2021/12/19 00:10:31;;;;;;;5.70;3.45;;;7.30;96.10;;;;;;2076907;28;20044;-91
2021/12/19 00:11:33;;;;;;;7.15;3.58;;;7.30;96.10;;;;;;2064432;28;20428;-90
2021/12/19 00:12:33;;;;;;;5.32;3.20;;;7.30;96.00;;;;;;2067266;28;20030;-91
2021/12/19 00:13:34;;;;;;;7.18;3.63;;;7.30;96.00;;;;;;2071654;28;20030;-90
2021/12/19 00:14:35;;;;;;;6.28;3.55;;;7.30;96.10;;;;;;2065155;28;20018;-91
2021/12/19 00:15:36;;;;;;;6.93;3.70;;;7.20;96.10;;;;;;2073277;28;20456;-91
2021/12/19 00:16:36;;;;;;;6.47;3.60;;;7.30;96.10;;;;;;2066498;28;20030;-91
2021/12/19 00:17:38;;;;;;;5.35;3.30;;;7.20;96.10;;;;;;2056084;28;20038;-91
2021/12/19 00:18:42;;;;;;;6.05;3.20;;;7.20;96.00;;;;;;2064967;28;20022;-91
2021/12/19 00:19:43;;;;;;;5.45;3.22;;;7.20;96.10;;;;;;2080127;28;20435;-91
2021/12/19 00:20:44;;;;;;;5.40;3.30;;;7.20;96.10;;;;;;2090173;28;20112;-90
2021/12/19 00:21:44;;;;;;;5.25;3.28;;;7.20;96.10;;;;;;2082213;28;20044;-91
2021/12/19 00:22:45;;;;;;;5.50;3.45;;;7.20;96.10;;;;;;2081797;28;20045;-91
2021/12/19 00:23:48;;;;;;;5.00;3.22;;;7.20;96.40;;;;;;2081467;28;20041;-91
2021/12/19 00:24:49;;;;;;;5.88;3.17;;;7.20;96.10;;;;;;2073473;28;20033;-92
2021/12/19 00:25:50;;;;;;;5.47;3.13;;;7.20;96.10;;;;;;2065321;28;20536;-91
2021/12/19 00:26:51;;;;;;;5.72;3.50;;;7.20;96.10;;;;;;2064126;28;20571;-90
2021/12/19 00:27:51;;;;;;;5.88;3.00;;;7.20;96.10;;;;;;2064203;28;20030;-91
2021/12/19 00:28:53;;;;;;;5.53;3.30;;;7.20;96.10;;;;;;2061911;28;20101;-91
2021/12/19 00:29:54;;;;;;;5.15;3.20;;;7.20;96.10;;;;;;2068392;28;20471;-90
2021/12/19 00:30:55;;;;;;;5.57;3.40;;;7.20;96.10;;;;;;2083779;28;20049;-88
2021/12/19 00:31:55;;;;;;;5.82;3.35;;;7.20;96.10;;;;;;2076424;28;20076;-87
2021/12/19 00:32:56;;;;;;;5.60;3.33;;;7.20;96.10;;;;;;2067314;28;20061;-89
2021/12/19 00:33:57;;;;;;;5.40;3.03;;;7.20;96.10;;;;;;2064982;28;20054;-90
2021/12/19 00:34:58;;;;;;;5.40;3.10;;;7.10;96.10;;;;;;2078829;28;20079;-91
2021/12/19 00:35:59;;;;;;;5.80;3.30;;;7.10;96.10;;;;;;2067036;28;20089;-91
2021/12/19 00:37:00;;;;;;;5.80;3.30;;;7.20;96.20;;;;;;2064617;28;20034;-90
2021/12/19 00:38:00;;;;;;;6.28;3.35;;;7.10;96.10;;;;;;2064700;28;20089;-91
2021/12/19 00:39:01;;;;;;;6.95;3.65;;;7.20;96.10;;;;;;2056951;28;20031;-90
2021/12/19 00:40:03;;;;;;;5.60;3.30;;;7.10;96.10;;;;;;2041289;28;20030;-90
2021/12/19 00:41:05;;;;;;;6.43;3.45;;;7.10;96.10;;;;;;2065495;28;20133;-90
2021/12/19 00:42:08;;;;;;;6.05;3.22;;;7.20;96.10;;;;;;2065042;28;20511;-90
2021/12/19 00:43:12;;;;;;;6.32;3.70;;;7.10;96.10;;;;;;2065533;28;20073;-91
2021/12/19 00:44:21;;;;;;;6.43;3.40;;;7.10;96.10;;;;;;2064860;28;20033;-90
2021/12/19 00:45:31;;;;;;;5.85;3.50;;;7.10;96.10;;;;;;2052038;28;20032;-90
2021/12/19 00:46:42;;;;;;;6.07;3.33;;;7.10;96.10;;;;;;2069524;28;20045;-91
2021/12/19 00:47:44;;;;;;;5.68;3.35;;;7.10;96.10;;;;;;2074511;28;20030;-90
2021/12/19 00:48:47;;;;;;;5.78;3.30;;;7.10;96.10;;;;;;2082641;28;20045;-91
2021/12/19 00:49:47;;;;;;;6.20;3.67;;;7.10;96.10;;;;;;2082686;28;20045;-91
2021/12/19 00:50:48;;;;;;;5.95;3.53;;;7.10;96.10;;;;;;2081176;28;20022;-91
2021/12/19 00:51:49;;;;;;;7.05;3.78;;;7.10;96.10;;;;;;2068642;28;20504;-91
2021/12/19 00:52:50;;;;;;;6.30;3.55;;;7.10;96.20;;;;;;2073235;28;20030;-91
2021/12/19 00:53:52;;;;;;;6.68;3.85;;;7.10;96.20;;;;;;2072522;28;20503;-92
2021/12/19 00:54:53;;;;;;;6.90;3.80;;;7.10;96.10;;;;;;2072891;28;20038;-92
2021/12/19 00:55:54;;;;;;;5.93;3.20;;;7.10;96.10;;;;;;2073702;28;20476;-92
2021/12/19 00:56:54;;;;;;;6.65;3.60;;;7.10;96.20;;;;;;2056816;28;20045;-91
2021/12/19 00:57:56;;;;;;;7.47;3.83;;;7.10;96.20;;;;;;2058209;28;20125;-91
2021/12/19 00:58:57;;;;;;;6.05;3.63;;;7.10;96.20;;;;;;2078784;28;20021;-91
2021/12/19 00:59:58;;;;;;;6.55;3.70;;;7.10;96.10;;;;;;2072098;28;20061;-91
2021/12/19 01:00:59;;;;;;;6.43;3.72;;;7.10;96.10;;;;;;2072317;28;20034;-90
2021/12/19 01:02:00;;;;;;;6.65;3.72;;;7.10;96.10;;;;;;2079954;28;20037;-91
2021/12/19 01:03:01;;;;;;;6.32;3.35;;;7.10;96.10;;;;;;2073896;28;20030;-91
2021/12/19 01:04:09;;;;;;;6.63;3.35;;;7.10;96.10;;;;;;2058219;28;20023;-91
2021/12/19 01:05:10;;;;;;;6.43;3.38;;;7.10;96.10;;;;;;2074599;28;20497;-91
2021/12/19 01:06:12;;;;;;;5.97;3.50;;;7.20;96.10;;;;;;2080024;28;20057;-91
2021/12/19 01:07:12;;;;;;;6.25;3.25;;;7.10;96.10;;;;;;2066744;28;20092;-91
2021/12/19 01:08:14;;;;;;;5.95;3.15;;;7.10;96.10;;;;;;2079103;28;20034;-90
2021/12/19 01:09:15;;;;;;;5.97;3.47;;;7.10;96.10;;;;;;2072539;28;20022;-91
2021/12/19 01:10:17;;;;;;;6.28;3.30;;;7.10;96.10;;;;;;2073469;28;20021;-91
2021/12/19 01:11:18;;;;;;;5.47;3.28;;;7.10;96.10;;;;;;2082209;28;20030;-90
2021/12/19 01:12:19;;;;;;;5.75;3.28;;;7.10;96.10;;;;;;2065268;28;20167;-91
2021/12/19 01:13:20;;;;;;;6.00;3.13;;;7.20;96.10;;;;;;2065091;28;20027;-91
2021/12/19 01:14:20;;;;;;;5.78;3.28;;;7.20;96.10;;;;;;2064153;28;20031;-90
2021/12/19 01:15:22;;;;;;;5.47;3.20;;;7.20;96.10;;;;;;2073082;28;20061;-92
2021/12/19 01:16:23;;;;;;;4.80;2.78;;;7.10;96.10;;;;;;2073847;28;20136;-91
2021/12/19 01:17:24;;;;;;;5.32;3.13;;;7.10;96.10;;;;;;2080445;28;20554;-91
2021/12/19 01:18:25;;;;;;;5.95;2.97;;;7.20;96.10;;;;;;2082951;28;20041;-91
2021/12/19 01:19:25;;;;;;;5.13;2.78;;;7.20;96.10;;;;;;2074449;28;20026;-91
2021/12/19 01:20:29;;;;;;;5.35;2.85;;;7.10;96.10;;;;;;2066141;28;20481;-91
2021/12/19 01:21:29;;;;;;;5.78;3.00;;;7.20;96.10;;;;;;2075083;28;20029;-90
2021/12/19 01:22:30;;;;;;;5.80;3.05;;;7.10;96.10;;;;;;2074396;28;20038;-92
2021/12/19 01:23:31;;;;;;;4.57;2.75;;;7.10;96.10;;;;;;2058484;28;20041;-91
2021/12/19 01:24:32;;;;;;;5.32;2.85;;;7.10;96.10;;;;;;2074631;28;20041;-90
2021/12/19 01:25:33;;;;;;;5.38;2.75;;;7.10;96.10;;;;;;2082621;28;20080;-91
2021/12/19 01:26:34;;;;;;;5.32;2.85;;;7.20;96.20;;;;;;2082451;28;20054;-92
2021/12/19 01:27:34;;;;;;;5.22;2.65;;;7.10;96.10;;;;;;2079182;28;20119;-91
2021/12/19 01:28:35;;;;;;;4.60;2.72;;;7.20;96.10;;;;;;2083323;28;20072;-91
2021/12/19 01:29:35;;;;;;;5.65;2.90;;;7.20;96.10;;;;;;2075529;28;20072;-91
2021/12/19 01:30:36;;;;;;;4.75;2.60;;;7.20;96.10;;;;;;2063452;28;20079;-92
2021/12/19 01:31:37;;;;;;;5.25;2.97;;;7.20;96.10;;;;;;2058252;28;20410;-91
2021/12/19 01:32:39;;;;;;;5.13;2.65;;;7.20;96.10;;;;;;2066557;28;20473;-91
2021/12/19 01:33:40;;;;;;;5.40;2.65;;;7.20;96.10;;;;;;2078384;28;20026;-91
2021/12/19 01:34:40;;;;;;;5.13;2.72;;;7.20;96.10;;;;;;2079451;28;20056;-92
2021/12/19 01:35:41;;;;;;;6.03;3.13;;;7.30;96.10;;;;;;2082142;28;20041;-91
2021/12/19 01:36:43;;;;;;;5.22;2.83;;;7.30;96.10;;;;;;2065621;28;20455;-92
2021/12/19 01:37:44;;;;;;;5.63;3.00;;;7.20;96.10;;;;;;2050601;28;20035;-91
2021/12/19 01:38:45;;;;;;;5.68;3.00;;;7.20;96.10;;;;;;2049708;28;20498;-91
2021/12/19 01:39:46;;;;;;;6.60;3.50;;;7.20;96.00;;;;;;2071872;28;20042;-91
2021/12/19 01:40:46;;;;;;;6.45;3.42;;;7.20;96.10;;;;;;2074338;28;20033;-90
2021/12/19 01:41:54;;;;;;;6.80;3.70;;;7.20;96.10;;;;;;2074468;28;20048;-91
2021/12/19 01:42:56;;;;;;;7.05;3.65;;;7.20;96.10;;;;;;2075335;28;20040;-91
2021/12/19 01:43:57;;;;;;;7.50;3.80;;;7.20;96.10;;;;;;2066611;28;20053;-92
2021/12/19 01:44:58;;;;;;;7.38;4.32;;;7.20;96.10;;;;;;2066151;28;20042;-91
2021/12/19 01:45:59;;;;;;;8.60;4.18;;;7.20;96.10;;;;;;2066232;28;20031;-92
2021/12/19 01:47:00;;;;;;;8.45;4.15;;;7.20;96.10;;;;;;2077337;28;20034;-91
2021/12/19 01:48:04;;;;;;;8.45;4.38;;;7.20;96.10;;;;;;2065990;28;20032;-91
2021/12/19 01:49:05;;;;;;;8.48;4.53;;;7.20;96.10;;;;;;2066243;28;20074;-90
2021/12/19 01:50:08;;;;;;;7.30;4.18;;;7.20;96.10;;;;;;2081481;28;20124;-91
2021/12/19 01:51:09;;;;;;;8.10;4.20;;;7.20;96.10;;;;;;2081520;28;20056;-91
2021/12/19 01:52:10;;;;;;;8.73;4.32;;;7.10;96.10;;;;;;2082862;28;20030;-91
2021/12/19 01:53:13;;;;;;;8.95;4.32;;;7.20;96.20;;;;;;2074199;28;20028;-91
2021/12/19 01:54:15;;;;;;;8.20;4.38;;;7.20;96.20;;;;;;2074732;28;20018;-91
2021/12/19 01:55:16;;;;;;;8.88;4.63;;;7.20;96.20;;;;;;2083206;28;20022;-91
2021/12/19 01:56:17;;;;;;;8.93;4.68;;;7.20;96.20;;;;;;2088023;28;20037;-91
2021/12/19 01:57:18;;;;;;;8.45;4.70;;;7.20;96.20;;;;;;2090116;28;20025;-89
2021/12/19 01:58:19;;;;;;;9.07;4.57;;;7.20;96.20;;;;;;2080922;28;20056;-91
2021/12/19 01:59:20;;;;;;;9.88;4.70;;;7.20;96.20;;;;;;2072587;28;20042;-91
2021/12/19 02:00:27;;;;;;;9.27;4.80;;;7.20;96.20;;;;;;2080397;28;20030;-90
2021/12/19 02:01:28;;;;;;;9.93;5.32;;;7.20;96.20;;;;;;2089659;28;20025;-90
2021/12/19 02:02:28;;;;;;;9.88;5.35;;;7.20;96.10;;;;;;2073599;28;20098;-90
2021/12/19 02:03:30;;;;;;;10.32;5.28;;;7.20;96.10;;;;;;2058961;28;20031;-90
2021/12/19 02:04:32;;;;;;;9.82;5.47;;;7.20;96.10;;;;;;2057254;28;20079;-90
2021/12/19 02:05:33;;;;;;;10.45;5.70;;;7.20;96.10;;;;;;2072307;28;20026;-90
2021/12/19 02:06:34;;;;;;;9.90;5.18;;;7.10;96.10;;;;;;2081630;28;20391;-90
2021/12/19 02:07:34;;;;;;;8.48;4.57;;;7.20;96.20;;;;;;2076613;28;20076;-91
2021/12/19 02:08:35;;;;;;;8.45;4.38;;;7.20;96.20;;;;;;2057766;28;20030;-92
2021/12/19 02:09:36;;;;;;;8.82;4.40;;;7.20;96.20;;;;;;2074164;28;20444;-89
2021/12/19 02:10:38;;;;;;;8.38;4.10;;;7.20;96.20;;;;;;2061782;28;20037;-90
2021/12/19 02:11:41;;;;;;;8.77;4.75;;;7.10;96.20;;;;;;2043271;28;20190;-90
2021/12/19 02:12:43;;;;;;;8.30;4.50;;;7.10;96.10;;;;;;2067056;28;20033;-91
2021/12/19 02:13:43;;;;;;;8.18;4.38;;;7.20;96.10;;;;;;2080738;28;20112;-91
2021/12/19 02:14:44;;;;;;;8.05;4.35;;;7.10;96.10;;;;;;2065367;28;20046;-91
2021/12/19 02:15:45;;;;;;;7.07;3.75;;;7.10;96.10;;;;;;2057207;28;20046;-92
2021/12/19 02:16:46;;;;;;;7.60;3.97;;;7.20;96.20;;;;;;2065810;28;20041;-91
2021/12/19 02:17:49;;;;;;;6.28;3.53;;;7.10;96.10;;;;;;2082183;28;20025;-91
2021/12/19 02:18:50;;;;;;;6.82;3.50;;;7.10;96.20;;;;;;2065680;28;20105;-90
2021/12/19 02:19:55;;;;;;;6.32;3.22;;;7.10;96.20;;;;;;2071851;28;20068;-89
2021/12/19 02:20:58;;;;;;;5.35;2.90;;;7.10;96.20;;;;;;2082374;28;20175;-91
2021/12/19 02:21:59;;;;;;;6.20;3.08;;;7.10;96.20;;;;;;2083029;28;20456;-90
2021/12/19 02:23:00;;;;;;;5.40;2.88;;;7.10;96.20;;;;;;2081229;28;20033;-91
2021/12/19 02:24:04;;;;;;;5.95;2.90;;;7.10;96.20;;;;;;2066342;28;20034;-87
2021/12/19 02:25:06;;;;;;;5.60;2.60;;;7.10;96.20;;;;;;2078058;28;20018;-87
2021/12/19 02:26:07;;;;;;;5.28;2.88;;;7.10;96.20;;;;;;2094772;28;20024;-86
2021/12/19 02:27:07;;;;;;;5.25;2.38;;;7.10;96.20;;;;;;2087051;28;20032;-87
2021/12/19 02:28:08;;;;;;;5.65;2.60;;;7.10;96.20;;;;;;2062314;28;20532;-88
2021/12/19 02:29:10;;;;;;;6.07;2.78;;;7.10;96.20;;;;;;2070784;28;20051;-87
2021/12/19 02:30:12;;;;;;;4.70;2.30;;;7.20;96.20;;;;;;2070859;28;20151;-86
2021/12/19 02:31:13;;;;;;;5.63;2.70;;;7.10;96.20;;;;;;2069974;28;20030;-90
2021/12/19 02:32:13;;;;;;;5.32;2.53;;;7.10;96.20;;;;;;2059942;28;20027;-91
2021/12/19 02:33:18;;;;;;;4.93;2.25;;;7.10;96.20;;;;;;2060127;28;20058;-90
2021/12/19 02:34:23;;;;;;;5.20;2.40;;;7.10;96.20;;;;;;2065505;28;20034;-78
2021/12/19 02:35:29;;;;;;;5.75;2.85;;;7.10;96.20;;;;;;2077069;28;20011;-83
2021/12/19 02:48:37;;;;;;;4.85;2.08;;;7.10;96.20;;;;;;2081629;28;20120;-90
2021/12/19 02:49:41;;;;;;;3.55;1.90;;;7.10;96.20;;;;;;2081479;28;20399;-91
2021/12/19 02:50:51;;;;;;;4.32;2.17;;;7.10;96.20;;;;;;2074038;28;20084;-90
2021/12/19 02:51:53;;;;;;;4.05;1.98;;;7.10;96.20;;;;;;2084054;28;20029;-90
2021/12/19 02:52:54;;;;;;;3.78;1.90;;;7.10;96.20;;;;;;2083495;28;20024;-90
2021/12/19 02:53:56;;;;;;;5.00;2.20;;;7.10;96.40;;;;;;2082466;28;20510;-90
2021/12/19 02:54:57;;;;;;;5.00;2.25;;;7.10;96.20;;;;;;2085630;28;20032;-91
2021/12/19 02:56:02;;;;;;;4.95;2.20;;;7.10;96.20;;;;;;2082232;28;20021;-91
2021/12/19 02:57:02;;;;;;;5.82;2.78;;;7.10;96.20;;;;;;2085642;28;20029;-91
2021/12/19 02:58:03;;;;;;;4.93;2.40;;;7.10;96.20;;;;;;2081519;28;20064;-90
2021/12/19 02:59:04;;;;;;;5.88;2.45;;;7.10;96.20;;;;;;2081334;28;20025;-91
2021/12/19 03:00:10;;;;;;;5.43;2.30;;;7.10;96.20;;;;;;2073376;28;20049;-92
2021/12/19 03:01:17;;;;;;;4.30;2.13;;;7.20;96.20;;;;;;2073295;28;20121;-91
2021/12/19 03:02:18;;;;;;;5.00;2.50;;;7.20;96.20;;;;;;2082294;28;20021;-91
2021/12/19 03:03:18;;;;;;;4.90;2.20;;;7.20;96.20;;;;;;2082664;28;20033;-92
2021/12/19 03:04:19;;;;;;;5.60;2.72;;;7.20;96.20;;;;;;2073176;28;20033;-92
2021/12/19 03:05:20;;;;;;;4.85;2.30;;;7.20;96.30;;;;;;2058813;28;20061;-91
2021/12/19 03:06:21;;;;;;;5.43;2.35;;;7.20;96.20;;;;;;2072577;28;20053;-91
2021/12/19 03:07:24;;;;;;;4.63;2.42;;;7.20;96.20;;;;;;2081947;28;20220;-91
2021/12/19 03:08:25;;;;;;;5.22;2.50;;;7.20;96.30;;;;;;2078680;28;20033;-92
2021/12/19 03:09:48;;;;;;;4.22;2.20;;;7.20;96.20;;;;;;2074648;28;20045;-91
2021/12/19 03:18:23;;;;;;;5.57;2.70;;;7.20;96.20;;;;;;2086444;28;20585;-92
2021/12/19 03:19:24;;;;;;;6.55;2.78;;;7.20;96.20;;;;;;2068289;28;20030;-92
2021/12/19 03:20:29;;;;;;;6.00;2.90;;;7.20;96.20;;;;;;2057280;28;20540;-92
2021/12/19 03:21:30;;;;;;;5.53;2.88;;;7.20;96.20;;;;;;2070770;28;20488;-91
2021/12/19 03:22:31;;;;;;;5.53;2.65;;;7.20;96.20;;;;;;2070592;28;20033;-92
2021/12/19 03:23:31;;;;;;;5.15;2.80;;;7.20;96.20;;;;;;2076979;28;20036;-92
2021/12/19 03:24:32;;;;;;;4.57;2.50;;;7.20;96.20;;;;;;2068136;28;20019;-92
2021/12/19 03:25:34;;;;;;;5.32;2.70;;;7.20;96.30;;;;;;2081549;28;20084;-91
2021/12/19 03:26:34;;;;;;;5.00;2.50;;;7.20;96.30;;;;;;2073450;28;20500;-92
2021/12/19 03:27:35;;;;;;;5.50;2.60;;;7.20;96.30;;;;;;2045874;28;20028;-92
2021/12/19 03:28:36;;;;;;;5.55;2.55;;;7.20;96.50;;;;;;2045703;29;20059;-92
2021/12/19 03:29:36;;;;;;;5.60;2.47;;;7.20;96.30;;;;;;2058381;28;20521;-91
2021/12/19 03:30:38;;;;;;;5.65;2.35;;;7.20;96.30;;;;;;2074233;28;20036;-91
2021/12/19 03:31:39;;;;;;;5.80;2.60;;;7.20;96.30;;;;;;2073302;28;20030;-91
2021/12/19 03:32:40;;;;;;;5.20;2.40;;;7.20;96.30;;;;;;2065336;28;20546;-91
2021/12/19 03:33:41;;;;;;;4.80;2.25;;;7.20;96.30;;;;;;2057069;28;20038;-91
2021/12/19 03:34:42;;;;;;;4.35;2.22;;;7.20;96.30;;;;;;2057520;28;20065;-91
2021/12/19 03:35:43;;;;;;;4.22;2.10;;;7.30;96.30;;;;;;2073228;28;20058;-92
2021/12/19 03:36:45;;;;;;;5.50;2.55;;;7.30;96.30;;;;;;2081402;28;20044;-91
2021/12/19 03:37:47;;;;;;;4.55;2.30;;;7.30;96.30;;;;;;2064822;28;20023;-93
2021/12/19 03:38:49;;;;;;;4.72;2.50;;;7.30;96.30;;;;;;2049667;28;20063;-91
2021/12/19 03:40:24;;;;;;;4.93;2.10;;;7.30;96.30;;;;;;2054708;28;20039;-91
2021/12/19 03:41:21;;;;;;;3.53;1.75;;;7.20;96.30;;;;;;2071709;28;20041;-91
2021/12/19 03:42:24;;;;;;;4.90;2.30;;;7.30;96.30;;;;;;2072573;28;20032;-91
2021/12/19 03:43:25;;;;;;;4.05;1.90;;;7.30;96.30;;;;;;2074360;28;20084;-91
2021/12/19 03:44:25;;;;;;;4.55;2.30;;;7.30;96.30;;;;;;2081628;28;20474;-91
2021/12/19 03:45:26;;;;;;;5.72;2.65;;;7.30;96.30;;;;;;2071500;28;20041;-91
2021/12/19 03:46:27;;;;;;;4.40;2.00;;;7.30;96.30;;;;;;2072844;28;20053;-91
2021/12/19 03:47:28;;;;;;;5.45;2.00;;;7.30;96.30;;;;;;2056707;28;20047;-91
2021/12/19 03:48:28;;;;;;;4.85;2.20;;;7.30;96.30;;;;;;2064517;28;20073;-91
2021/12/19 03:49:29;;;;;;;4.90;2.15;;;7.30;96.30;;;;;;2070732;28;20097;-91
2021/12/19 03:50:33;;;;;;;4.80;2.05;;;7.30;96.60;;;;;;2069416;28;20520;-92
2021/12/19 03:51:34;;;;;;;6.50;2.40;;;7.30;96.30;;;;;;2073898;28;20025;-92
2021/12/19 03:52:35;;;;;;;5.15;2.40;;;7.30;96.60;;;;;;2081228;28;20080;-92
2021/12/19 03:53:36;;;;;;;4.90;2.30;;;7.30;96.30;;;;;;2081578;28;20025;-91
2021/12/19 03:54:36;;;;;;;5.80;2.33;;;7.30;96.30;;;;;;2072618;28;20068;-91
2021/12/19 03:55:37;;;;;;;5.07;2.50;;;7.30;96.30;;;;;;2060255;28;20089;-91
2021/12/19 03:56:38;;;;;;;5.07;2.20;;;7.30;96.30;;;;;;2065353;28;20057;-91
2021/12/19 03:57:39;;;;;;;6.18;2.65;;;7.40;96.30;;;;;;2074661;28;20117;-91
2021/12/19 03:58:40;;;;;;;4.63;2.10;;;7.30;96.30;;;;;;2057376;28;20452;-92
2021/12/19 03:59:43;;;;;;;5.15;2.60;;;7.40;96.30;;;;;;2055678;28;20031;-91
2021/12/19 04:00:45;;;;;;;5.97;2.67;;;7.40;96.30;;;;;;2062335;28;20030;-92
2021/12/19 04:01:50;;;;;;;5.38;2.45;;;7.40;96.60;;;;;;2071982;28;20053;-91
2021/12/19 04:02:53;;;;;;;4.90;2.22;;;7.40;96.30;;;;;;2081617;28;20094;-92
2021/12/19 04:03:54;;;;;;;5.47;2.42;;;7.40;96.40;;;;;;2081393;28;20033;-91
2021/12/19 04:04:57;;;;;;;5.00;2.28;;;7.40;96.40;;;;;;2073222;28;20060;-91
2021/12/19 04:05:58;;;;;;;4.65;2.38;;;7.40;96.40;;;;;;2072643;28;20033;-91
2021/12/19 04:06:59;;;;;;;6.70;2.70;;;7.40;96.30;;;;;;2081658;28;20075;-91
2021/12/19 04:08:00;;;;;;;5.00;2.20;;;7.40;96.40;;;;;;2078248;28;20029;-92
2021/12/19 04:09:02;;;;;;;5.72;2.50;;;7.40;96.40;;;;;;2081494;28;20558;-91
2021/12/19 04:10:03;;;;;;;6.20;2.80;;;7.40;96.40;;;;;;2081075;28;20033;-92
2021/12/19 04:11:04;;;;;;;6.15;2.70;;;7.40;96.40;;;;;;2073315;28;20045;-90
2021/12/19 04:12:05;;;;;;;6.85;3.05;;;7.40;96.40;;;;;;2073436;28;20137;-91
2021/12/19 04:13:07;;;;;;;5.30;2.33;;;7.40;96.40;;;;;;2072335;28;20029;-91
2021/12/19 04:14:07;;;;;;;6.00;3.05;;;7.40;96.40;;;;;;2075404;28;20432;-91
2021/12/19 04:15:10;;;;;;;6.25;2.92;;;7.40;96.40;;;;;;2082596;28;20117;-88
2021/12/19 04:16:11;;;;;;;5.65;2.55;;;7.50;96.40;;;;;;2083549;28;20049;-88
2021/12/19 04:17:11;;;;;;;7.13;2.72;;;7.40;96.40;;;;;;2083278;28;20020;-88
2021/12/19 04:18:12;;;;;;;6.22;2.80;;;7.40;96.40;;;;;;2084057;28;20025;-87
2021/12/19 04:19:13;;;;;;;5.47;2.72;;;7.40;96.40;;;;;;2084467;28;20021;-88
2021/12/19 04:20:18;;;;;;;5.47;2.60;;;7.40;96.40;;;;;;2078799;28;20041;-87
2021/12/19 04:21:19;;;;;;;5.93;2.70;;;7.40;96.40;;;;;;2080480;28;20052;-88
2021/12/19 04:22:19;;;;;;;5.40;2.55;;;7.50;96.40;;;;;;2065905;28;20026;-92
2021/12/19 04:23:20;;;;;;;5.35;2.72;;;7.50;96.40;;;;;;2066314;28;20073;-91
2021/12/19 04:24:21;;;;;;;6.13;2.97;;;7.50;96.40;;;;;;2066270;28;20026;-91
2021/12/19 04:25:22;;;;;;;5.93;2.88;;;7.50;96.40;;;;;;2073936;28;20026;-91
2021/12/19 04:26:22;;;;;;;6.90;2.78;;;7.40;96.30;;;;;;2076672;28;20129;-91
2021/12/19 04:27:23;;;;;;;7.50;3.20;;;7.40;96.60;;;;;;2073538;28;20058;-92
2021/12/19 04:28:24;;;;;;;6.45;3.05;;;7.50;96.30;;;;;;2081779;28;20029;-91
2021/12/19 04:29:26;;;;;;;5.72;2.97;;;7.40;96.30;;;;;;2081356;28;20480;-92
2021/12/19 04:30:27;;;;;;;6.38;3.13;;;7.40;96.30;;;;;;2081261;28;20032;-92
2021/12/19 04:31:27;;;;;;;6.05;3.00;;;7.40;96.30;;;;;;2080649;28;20119;-91
2021/12/19 04:32:33;;;;;;;6.20;3.35;;;7.40;96.30;;;;;;2075915;28;20069;-91
2021/12/19 04:33:36;;;;;;;6.75;3.03;;;7.40;96.40;;;;;;2078394;28;20053;-91
2021/12/19 04:34:37;;;;;;;6.78;3.40;;;7.40;96.40;;;;;;2075917;28;20041;-91
2021/12/19 04:35:41;;;;;;;5.20;2.83;;;7.40;96.30;;;;;;2056870;28;20027;-91
2021/12/19 04:36:45;;;;;;;6.28;3.28;;;7.40;96.40;;;;;;2065596;28;20072;-91
2021/12/19 04:40:13;;;;;;;6.60;3.15;;;7.40;96.40;;;;;;2079602;28;20017;-91
2021/12/19 04:54:15;;;;;;;6.47;3.10;;;7.50;96.40;;;;;;2083436;28;20083;-92
2021/12/19 04:56:51;;;;;;;6.45;2.92;;;7.40;96.30;;;;;;2081593;28;20383;-91
2021/12/19 04:59:13;;;;;;;6.32;3.22;;;7.50;96.30;;;;;;2085707;28;20396;-92
2021/12/19 05:00:18;;;;;;;6.25;3.00;;;7.50;96.40;;;;;;2085550;28;20033;-89
2021/12/19 05:02:57;;;;;;;6.35;3.30;;;7.50;96.30;;;;;;2079101;28;20021;-85
2021/12/19 05:04:10;;;;;;;6.70;3.35;;;7.40;96.30;;;;;;2076536;28;20044;-91
2021/12/19 05:06:46;;;;;;;7.20;3.83;;;7.40;96.40;;;;;;2073596;28;20026;-90
2021/12/19 05:14:36;;;;;;;7.43;3.88;;;7.40;96.30;;;;;;2080392;28;20068;-90
2021/12/19 05:15:37;;;;;;;8.73;4.18;;;7.40;96.30;;;;;;2072177;28;20101;-90
2021/12/19 05:16:39;;;;;;;6.95;3.83;;;7.40;96.40;;;;;;2073445;28;20038;-90
2021/12/19 05:17:40;;;;;;;8.68;4.10;;;7.40;96.40;;;;;;2078756;28;20040;-90
2021/12/19 05:18:43;;;;;;;9.88;4.30;;;7.40;96.40;;;;;;2079628;28;20036;-90
2021/12/19 05:19:50;;;;;;;8.00;4.22;;;7.40;96.60;;;;;;2069649;28;20094;-91
2021/12/19 05:20:58;;;;;;;8.32;4.30;;;7.40;96.40;;;;;;2062953;28;20046;-91
2021/12/19 05:22:02;;;;;;;7.90;4.13;;;7.50;96.40;;;;;;2087043;28;20368;-91
2021/12/19 05:23:11;;;;;;;9.57;4.40;;;7.40;96.40;;;;;;2076579;28;20022;-91
2021/12/19 05:25:31;;;;;;;7.43;4.07;;;7.50;96.40;;;;;;2066210;28;20546;-91
2021/12/19 05:26:32;;;;;;;7.57;4.07;;;7.50;96.40;;;;;;2056798;28;20142;-90
2021/12/19 05:27:32;;;;;;;7.28;3.60;;;7.50;96.40;;;;;;2069026;28;20783;-91
2021/12/19 05:28:33;;;;;;;7.47;3.95;;;7.50;96.40;;;;;;2074643;28;20124;-90
2021/12/19 05:29:35;;;;;;;8.05;4.07;;;7.50;96.40;;;;;;2066396;28;20027;-90
2021/12/19 05:30:36;;;;;;;8.15;3.97;;;7.50;96.40;;;;;;2066641;28;20030;-91
2021/12/19 05:31:37;;;;;;;6.93;4.05;;;7.50;96.50;;;;;;2066410;28;20523;-91
2021/12/19 05:32:38;;;;;;;8.02;4.28;;;7.50;96.50;;;;;;2058243;28;20034;-91
2021/12/19 05:33:38;;;;;;;7.68;3.72;;;7.50;96.50;;;;;;2058265;28;20034;-91
2021/12/19 05:34:40;;;;;;;7.70;4.28;;;7.50;96.50;;;;;;2065810;28;20034;-90
2021/12/19 05:45:59;;;;;;;7.00;3.60;;;7.50;96.40;;;;;;2082647;28;20048;-90
2021/12/19 05:47:01;;;;;;;6.93;3.78;;;7.50;96.40;;;;;;2083311;28;20183;-91
2021/12/19 05:48:01;;;;;;;6.35;3.53;;;7.50;96.40;;;;;;2077661;28;20022;-91
2021/12/19 05:49:04;;;;;;;5.65;3.25;;;7.50;96.40;;;;;;2065687;28;20125;-90
2021/12/19 05:50:05;;;;;;;6.25;2.92;;;7.50;96.40;;;;;;2066841;28;20023;-91
2021/12/19 05:51:09;;;;;;;5.45;3.20;;;7.50;96.50;;;;;;2066299;28;20125;-90
2021/12/19 05:52:09;;;;;;;5.68;2.75;;;7.50;96.50;;;;;;2074534;28;20125;-90
2021/12/19 05:53:11;;;;;;;6.18;2.85;;;7.50;96.50;;;;;;2081422;28;20029;-91
2021/12/19 05:54:12;;;;;;;5.68;2.95;;;7.60;96.50;;;;;;2066747;28;20035;-90
2021/12/19 05:55:13;;;;;;;5.35;3.00;;;7.50;96.80;;;;;;2057061;28;20465;-89
2021/12/19 05:56:14;;;;;;;5.78;3.00;;;7.60;96.50;;;;;;2072670;28;20613;-90
2021/12/19 05:57:15;;;;;;;5.95;2.75;;;7.60;96.50;;;;;;2082674;28;20072;-91
2021/12/19 05:58:15;;;;;;;5.07;2.90;;;7.60;96.50;;;;;;2083005;28;20049;-91
2021/12/19 05:59:16;;;;;;;6.90;3.45;;;7.60;96.50;;;;;;2084224;28;20030;-90
2021/12/19 06:00:18;;;;;;;5.57;2.70;;;7.60;96.50;;;;;;2082092;28;20010;-90
2021/12/19 06:01:19;;;;;;;5.30;2.70;;;7.60;96.50;;;;;;2087286;28;20081;-91
2021/12/19 06:02:20;;;;;;;5.32;2.90;;;7.60;96.50;;;;;;2089721;28;20030;-91
2021/12/19 06:03:20;;;;;;;6.22;3.00;;;7.60;96.50;;;;;;2083925;28;20022;-90
2021/12/19 06:04:21;;;;;;;5.95;3.15;;;7.60;96.50;;;;;;2089270;28;20133;-91
2021/12/19 06:05:22;;;;;;;7.70;3.42;;;7.70;96.50;;;;;;2080069;28;20093;-88
2021/12/19 06:06:26;;;;;;;6.55;3.13;;;7.60;96.50;;;;;;2070941;28;20030;-88
2021/12/19 06:07:26;;;;;;;6.22;3.22;;;7.60;96.50;;;;;;2083378;28;20029;-88
2021/12/19 06:08:27;;;;;;;7.22;3.72;;;7.60;96.50;;;;;;2081784;28;20100;-90
2021/12/19 06:09:27;;;;;;;5.95;3.17;;;7.70;96.50;;;;;;2083132;28;20022;-89
2021/12/19 06:10:28;;;;;;;5.93;3.10;;;7.60;96.50;;;;;;2066352;28;20026;-88
2021/12/19 06:11:29;;;;;;;6.43;3.30;;;7.60;96.50;;;;;;2057536;28;20147;-89
2021/12/19 06:12:31;;;;;;;7.10;3.30;;;7.60;96.50;;;;;;2064366;28;20034;-90
2021/12/19 06:13:32;;;;;;;6.65;3.42;;;7.60;96.50;;;;;;2073991;28;20018;-92
2021/12/19 06:14:34;;;;;;;6.18;3.38;;;7.60;96.50;;;;;;2065489;28;20125;-91
2021/12/19 06:15:36;;;;;;;6.22;3.45;;;7.60;96.50;;;;;;2065897;28;20062;-91
2021/12/19 06:16:36;;;;;;;8.88;3.58;;;7.60;96.50;;;;;;2065448;28;20409;-92
2021/12/19 06:17:40;;;;;;;5.72;3.17;;;7.60;96.50;;;;;;2058071;28;20126;-90
2021/12/19 06:18:41;;;;;;;5.82;2.83;;;7.60;96.50;;;;;;2064247;28;20038;-91
2021/12/19 06:19:41;;;;;;;5.13;2.55;;;7.60;96.50;;;;;;2065774;28;20030;-92
2021/12/19 06:20:42;;;;;;;4.38;2.20;;;7.60;96.50;;;;;;2059826;28;20031;-91
2021/12/19 06:21:43;;;;;;;5.30;2.65;;;7.60;96.80;;;;;;2062017;28;20022;-91
2021/12/19 06:22:43;;;;;;;5.50;2.83;;;7.60;96.50;;;;;;2072408;28;20029;-91
2021/12/19 06:23:44;;;;;;;5.30;2.50;;;7.60;96.50;;;;;;2060158;28;20073;-92
2021/12/19 06:24:45;;;;;;;4.72;2.53;;;7.60;96.50;;;;;;2073135;28;20034;-91
2021/12/19 06:25:46;;;;;;;3.67;1.83;;;7.60;96.60;;;;;;2088193;28;20021;-92
2021/12/19 06:26:46;;;;;;;3.40;2.00;;;7.60;96.60;;;;;;2085222;28;20049;-91
2021/12/19 06:27:47;;;;;;;4.05;1.90;;;7.60;96.60;;;;;;2090192;28;20465;-91
2021/12/19 06:28:48;;;;;;;3.85;1.83;;;7.60;96.50;;;;;;2081425;28;20028;-92
2021/12/19 06:29:49;;;;;;;3.35;1.42;;;7.60;96.50;;;;;;2081512;28;20039;-92
2021/12/19 06:30:50;;;;;;;3.10;1.40;;;7.60;96.50;;;;;;2086854;28;20025;-91
2021/12/19 06:31:51;;;;;;;2.63;1.30;;;7.60;96.50;;;;;;2088678;28;20439;-91
2021/12/19 06:32:51;;;;;;;2.63;1.20;;;7.50;96.50;;;;;;2081969;28;20120;-92
2021/12/19 06:33:52;;;;;;;2.55;1.20;;;7.50;96.50;;;;;;2073344;28;20026;-92